Portada
METAR-TAF:

METAR-TAF

Aeroports :

Wellington, Nova Zelanda

latitud: 41-20S, longitud: 174-48E, altitud: 12 m

Observació

L'informe es va fer fa 42 minuts, a les 07:00 UTC
Vent 3 kt del Est
Temperatura 17°C
Humitat 68%
Pressió 1022 hPa
Visibilitat 10 km o més

METAR: NZWN 300700Z AUTO 10003KT 9999 BKN070/// 17/11 Q1022 NOSIG

Hora: 20:42 (07:42 UTC)

Pronòstic

L'informe es va fer fa 2 hores i 33 minuts, a les 05:09 UTC
Pronòstic vàlid del 30 a les 06 UTC al 31 a les 06 UTC
Vent 8 kt del Est
Visibilitat 10 km o més
Núvols disperses a una alçada de 3500 ft
Probabilitat 40% :
Temporalment
l' 30 a les 15 UTC al 30 a les 22 UTC
Visibilitat: 6000 m
Cel ennuvolat a una alçada de 1200 ft
xàfecs de pluja
Evolucionant progressivament
l' 30 a les 19 UTC al 30 a les 21 UTC
Vent 14 kt del Sud/Sud-Est

TAF: NZWN 300509Z 3006/3106 10008KT 9999 SCT035 PROB40 TEMPO 3015/3022 6000 SHRA BKN012 BECMG 3019/3021 16014KT

Observacions i pronòstics meteorològics de més de 4000 aeroports (METAR i TAF).

Les estacions disponibles són els punts grocs i vermells al mapa.

Posi el ratolí al punt desitjat per veure el nom de l'estació.

Feu clic per veure les observacions i els pronòstics meteorològics.

Per canviar el mapa: feu clic els botons verds amb una creu de color negre per apropar; al botó verd amb un guió per allunyar la imatge; o en les fletxes verdes per a mapes adjacents.


METAR-TAF: